PORT of CASABLANCA

Country: Morocco Country: Morocco (MA)
Latitude / Longitude: 33.61° / -7.6025° Show on Map Show on Map
Local Time:  UTC +1
UN/LOCODE: MACAS
Vessels in Port: 20
Expected Arrivals: 19

Recent Arrivals & Departures


Vessel Name
Arrival (UTC)
Arrival (LT)
Departure (UTC)
Departure (LT)
Vessel Type: Tugs, Pilots etc  JACQUES 2 2014-09-04 11:19:00 2014-09-04 12:19:00 2014-09-18 10:12:00 2014-09-18 11:12:00
Vessel Type: Yachts & Others  CATOCO 2014-09-18 09:05:00 2014-09-18 10:05:00
Vessel Type: Yachts & Others  CATOCO 2014-09-18 00:21:00 2014-09-18 01:21:00 2014-09-18 08:07:00 2014-09-18 09:07:00
Vessel Type: Cargo Vessels  ALLEGRO 2014-09-18 01:36:00 2014-09-18 02:36:00
Vessel Type: Yachts & Others  CATOCO 2014-09-17 17:57:00 2014-09-17 18:57:00 2014-09-17 23:32:00 2014-09-18 00:32:00
Vessel Type: Cargo Vessels  GARNET LEADER 2014-09-17 14:23:00 2014-09-17 15:23:00 2014-09-17 22:59:00 2014-09-17 23:59:00
Vessel Type: Cargo Vessels  AKAR PAZAR 2014-09-17 20:47:00 2014-09-17 21:47:00
Vessel Type: Cargo Vessels  ARNICA 2014-09-17 20:26:00 2014-09-17 21:26:00
Vessel Type: Yachts & Others  PETROBRAS 62 2014-09-10 23:43:00 2014-09-11 00:43:00 2014-09-17 20:01:00 2014-09-17 21:01:00
Vessel Type: Cargo Vessels  BONNY ISLAND 2014-09-15 08:30:00 2014-09-15 09:30:00 2014-09-17 19:40:00 2014-09-17 20:40:00

Expected Arrivals


Vessel Name
Scheduled Arrival (UTC)
Scheduled Arrival (LT)
Estimated Arrival (UTC)
Estimated Arrival (LT)
Vessel Type: Cargo Vessels  ATLANTIC HORIZON 2014-09-17 12:00:00 2014-09-17 13:00:00 2014-09-18 12:52:00 2014-09-18 13:52:00
Vessel Type: Cargo Vessels  AGIA 2014-09-17 21:00:00 2014-09-17 22:00:00
Vessel Type: Cargo Vessels  LILLY BOLTEN 2014-09-18 02:00:00 2014-09-18 03:00:00
Vessel Type: Cargo Vessels  ADAKENT 2014-09-18 14:00:00 2014-09-18 15:00:00 2014-09-18 15:47:00 2014-09-18 16:47:00
Vessel Type: Cargo Vessels  ELAN 2014-09-19 02:00:00 2014-09-19 03:00:00 2014-09-19 07:51:00 2014-09-19 08:51:00
Vessel Type: Cargo Vessels  BALTICDIEP 2014-09-19 08:00:00 2014-09-19 09:00:00 2014-09-19 07:40:00 2014-09-19 08:40:00
Vessel Type: Cargo Vessels  MINKA C 2014-09-19 12:00:00 2014-09-19 13:00:00 2014-09-21 13:12:00 2014-09-21 14:12:00
Vessel Type: Cargo Vessels  DIAMONDE 2014-09-20 07:00:00 2014-09-20 08:00:00 2014-09-23 15:48:00 2014-09-23 16:48:00
Vessel Type: Cargo Vessels  PALAU 2014-09-22 12:00:00 2014-09-22 13:00:00 2014-09-24 13:15:00 2014-09-24 14:15:00
Vessel Type: Cargo Vessels  BASIC PRINCESS 2014-09-23 20:00:00 2014-09-23 21:00:00 2014-09-23 07:39:00 2014-09-23 08:39:00

Wind Forecast


    
Time (UTC)
Speed
Direction
Temperature
2014-09-18 12:00:00 10 knots 288° 24°C
2014-09-18 15:00:00 18 knots 300° 23°C
2014-09-18 18:00:00 14 knots 307° 23°C
2014-09-18 21:00:00 11 knots 285° 23°C
2014-09-19 00:00:00 9 knots 263° 23°C
2014-09-19 03:00:00 9 knots 235° 22°C
2014-09-19 06:00:00 10 knots 230° 22°C
2014-09-19 09:00:00 10 knots 236° 22°C
2014-09-19 12:00:00 7 knots 305° 24°C
2014-09-19 15:00:00 10 knots 340° 23°C
2014-09-19 18:00:00 7 knots 322° 23°C
2014-09-19 21:00:00 6 knots 274° 23°C
2014-09-20 00:00:00 7 knots 248° 23°C
2014-09-20 03:00:00 8 knots 232° 22°C
2014-09-20 06:00:00 8 knots 221° 22°C
2014-09-20 09:00:00 8 knots 233° 23°C